Swift17 — SWIFT17 — position and weather

sailwx.info

Track history (hours):
 
Tides and Currents Weather Stations Pressure Air Temp Water Temp Dewpoint Dewpoint Depression Visibility Wind Speed Wind Dir Waves Ship Positions

Swift17

Last reported at 2017-Oct-17 20:52 UTC. Time now 2017-Nov-20 15:20 UTC.
Position N 35°04' W 120°41'.
Warning: this ship's position is 33 days out of date.

Type: Pleasure craft. MMSI: 338214659.

Date/timePositionNaut miles runAvg speedWind from/ knotsBaromVisibWave heightAir tempDewpointWater temp
2017-Oct-17 20:52N 35°04' W 120°41'16 0.6
2017-Oct-16 16:21N 34°48' W 120°39'3 8.7
2017-Oct-16 16:00N 34°51' W 120°38'3 0.2
2017-Oct-15 18:19N 34°53' W 120°41'3 4.5
2017-Oct-15 17:37N 34°52' W 120°38'0 0.4
2017-Oct-15 17:16N 34°52' W 120°38'0 0.4
2017-Oct-15 16:47N 34°52' W 120°38'0 0.5
2017-Oct-15 16:26N 34°52' W 120°38'4 0.2
2017-Oct-14 20:39N 34°54' W 120°42'1 3.4
2017-Oct-14 20:28N 34°54' W 120°42'0 0.2
2017-Oct-14 19:45N 34°54' W 120°42'0 0.2
2017-Oct-14 19:27N 34°54' W 120°42'0 0.1
2017-Oct-14 18:55N 34°54' W 120°42'0 0.1
2017-Oct-14 18:27N 34°54' W 120°42'0 0.1
2017-Oct-14 18:00N 34°54' W 120°42'0 0.0
2017-Oct-14 17:17N 34°54' W 120°42'0 0.2
2017-Oct-14 17:00N 34°54' W 120°42'0 0.0
2017-Oct-14 16:30N 34°54' W 120°42'0 0.3
2017-Oct-14 16:00N 34°54' W 120°42'  
2017-Oct-09 20:39N 34°55' W 120°43'0 1.4
2017-Oct-09 20:29N 34°55' W 120°43'0 0.1
2017-Oct-09 19:57N 34°55' W 120°43'0 0.2
2017-Oct-09 19:30N 34°55' W 120°43'0 0.3
2017-Oct-09 19:00N 34°55' W 120°42'0 0.3
2017-Oct-09 18:30N 34°55' W 120°42'0 0.4
2017-Oct-09 18:00N 34°55' W 120°42'  
Track history (hours):
 
Tides and Currents Weather Stations Pressure Air Temp Water Temp Dewpoint Dewpoint Depression Visibility Wind Speed Wind Dir Waves Ship Positions

Swift17

Last reported at 2017-Oct-17 20:52 UTC. Time now 2017-Nov-20 15:20 UTC.
Position N 35°04' W 120°41'.
Warning: this ship's position is 33 days out of date.

Type: Pleasure craft. MMSI: 338214659.

Date/timePositionNaut miles runAvg speedWind from/ knotsBaromVisibWave heightAir tempDewpointWater temp
2017-Oct-17 20:52N 35°04' W 120°41'16 0.6
2017-Oct-16 16:21N 34°48' W 120°39'3 8.7
2017-Oct-16 16:00N 34°51' W 120°38'3 0.2
2017-Oct-15 18:19N 34°53' W 120°41'3 4.5
2017-Oct-15 17:37N 34°52' W 120°38'0 0.4
2017-Oct-15 17:16N 34°52' W 120°38'0 0.4
2017-Oct-15 16:47N 34°52' W 120°38'0 0.5
2017-Oct-15 16:26N 34°52' W 120°38'4 0.2
2017-Oct-14 20:39N 34°54' W 120°42'1 3.4
2017-Oct-14 20:28N 34°54' W 120°42'0 0.2
2017-Oct-14 19:45N 34°54' W 120°42'0 0.2
2017-Oct-14 19:27N 34°54' W 120°42'0 0.1
2017-Oct-14 18:55N 34°54' W 120°42'0 0.1
2017-Oct-14 18:27N 34°54' W 120°42'0 0.1
2017-Oct-14 18:00N 34°54' W 120°42'0 0.0
2017-Oct-14 17:17N 34°54' W 120°42'0 0.2
2017-Oct-14 17:00N 34°54' W 120°42'0 0.0
2017-Oct-14 16:30N 34°54' W 120°42'0 0.3
2017-Oct-14 16:00N 34°54' W 120°42'  
2017-Oct-09 20:39N 34°55' W 120°43'0 1.4
2017-Oct-09 20:29N 34°55' W 120°43'0 0.1
2017-Oct-09 19:57N 34°55' W 120°43'0 0.2
2017-Oct-09 19:30N 34°55' W 120°43'0 0.3
2017-Oct-09 19:00N 34°55' W 120°42'0 0.3
2017-Oct-09 18:30N 34°55' W 120°42'0 0.4
2017-Oct-09 18:00N 34°55' W 120°42'  

Dump ship's entire track history